createdAt,value
2022-10-12T00:01:25.245Z,100457.25
2022-10-12T00:04:27.019Z,100454.80
2022-10-12T00:07:28.737Z,100459.98
2022-10-12T00:10:31.407Z,100458.59
2022-10-12T00:13:33.633Z,100456.46
2022-10-12T00:16:35.551Z,100459.87
2022-10-12T00:19:37.544Z,100459.21
2022-10-12T00:22:39.316Z,100458.23
2022-10-12T00:25:41.517Z,100456.63
2022-10-12T00:28:43.822Z,100459.77
2022-10-12T00:31:45.995Z,100458.23
2022-10-12T00:34:47.621Z,100458.10
2022-10-12T00:37:53.403Z,100458.41
2022-10-12T00:40:55.306Z,100461.73
2022-10-12T00:43:58.691Z,100463.30
2022-10-12T00:47:04.443Z,100459.13
2022-10-12T00:50:15.671Z,100457.91
2022-10-12T00:53:20.872Z,100462.34
2022-10-12T00:56:24.972Z,100462.27
2022-10-12T00:59:32.550Z,100461.19
2022-10-12T01:02:35.475Z,100460.42
2022-10-12T01:05:40.404Z,100461.09
2022-10-12T01:08:42.730Z,100463.95
2022-10-12T01:11:44.797Z,100463.08
2022-10-12T01:14:47.272Z,100458.65
2022-10-12T01:18:13.610Z,100458.57
2022-10-12T01:21:24.542Z,100457.95
2022-10-12T01:25:03.097Z,100454.23
2022-10-12T01:28:57.963Z,100453.85
2022-10-12T01:32:23.002Z,100458.64
2022-10-12T01:35:46.411Z,100461.20
2022-10-12T01:38:55.158Z,100460.36
2022-10-12T01:41:59.474Z,100462.05
2022-10-12T01:45:05.633Z,100459.96
2022-10-12T01:48:07.657Z,100460.55
2022-10-12T01:51:12.474Z,100463.63
2022-10-12T01:54:23.735Z,100466.15
2022-10-12T01:57:39.190Z,100464.16
2022-10-12T02:01:11.361Z,100461.73
2022-10-12T02:04:29.587Z,100466.45
2022-10-12T02:07:54.630Z,100465.92
2022-10-12T02:11:14.301Z,100463.85
2022-10-12T02:14:18.931Z,100468.61
2022-10-12T02:17:22.760Z,100465.80
2022-10-12T02:20:25.531Z,100468.44
2022-10-12T02:23:28.051Z,100470.84
2022-10-12T02:26:31.572Z,100474.76
2022-10-12T02:29:38.080Z,100471.77
2022-10-12T02:32:45.462Z,100471.67
2022-10-12T02:35:52.937Z,100470.45
2022-10-12T02:39:06.090Z,100474.14
2022-10-12T02:42:12.603Z,100475.80
2022-10-12T02:45:15.641Z,100480.13
2022-10-12T02:48:20.561Z,100481.88
2022-10-12T02:51:23.395Z,100483.05
2022-10-12T02:54:25.517Z,100477.91
2022-10-12T02:57:27.496Z,100479.12
2022-10-12T03:00:29.490Z,100481.91
2022-10-12T03:03:31.408Z,100481.48
2022-10-12T03:06:33.158Z,100483.95
2022-10-12T03:09:34.851Z,100481.02
2022-10-12T03:12:36.867Z,100481.02
2022-10-12T03:15:38.738Z,100479.33
2022-10-12T03:18:40.678Z,100481.92
2022-10-12T03:21:42.427Z,100477.98
2022-10-12T03:24:44.205Z,100476.56
2022-10-12T03:27:45.998Z,100481.15
2022-10-12T03:30:48.267Z,100487.45
2022-10-12T03:33:50.154Z,100483.37
2022-10-12T03:36:51.902Z,100488.23
2022-10-12T03:39:53.714Z,100481.37
2022-10-12T03:42:55.480Z,100483.27
2022-10-12T03:45:57.145Z,100482.50
2022-10-12T03:48:58.974Z,100478.96
2022-10-12T03:52:00.992Z,100481.10
2022-10-12T03:55:02.749Z,100478.06
2022-10-12T03:58:04.602Z,100480.86
2022-10-12T04:01:06.574Z,100484.88
2022-10-12T04:04:10.595Z,100485.16
2022-10-12T04:07:15.469Z,100487.64
2022-10-12T04:10:17.390Z,100484.27
2022-10-12T04:13:19.575Z,100488.58
2022-10-12T04:16:24.068Z,100486.98
2022-10-12T04:19:28.051Z,100492.14
2022-10-12T04:22:29.783Z,100492.48
2022-10-12T04:25:31.475Z,100492.33
2022-10-12T04:28:33.693Z,100496.98
2022-10-12T04:31:35.603Z,100494.08
2022-10-12T04:34:37.445Z,100494.67
2022-10-12T04:37:39.610Z,100496.73
2022-10-12T04:40:41.631Z,100498.79
2022-10-12T04:43:43.539Z,100503.59
2022-10-12T04:46:45.342Z,100500.64
2022-10-12T04:49:47.256Z,100499.35
2022-10-12T04:52:49.147Z,100498.35
2022-10-12T04:55:50.976Z,100503.79
2022-10-12T04:58:53.007Z,100503.67
2022-10-12T05:01:54.827Z,100506.95
2022-10-12T05:04:56.748Z,100506.27
2022-10-12T05:07:58.413Z,100510.34
2022-10-12T05:11:00.524Z,100513.41
2022-10-12T05:14:02.505Z,100515.86
2022-10-12T05:17:04.638Z,100517.67
2022-10-12T05:20:07.186Z,100517.13
2022-10-12T05:23:11.224Z,100516.63
2022-10-12T05:26:13.079Z,100519.73
2022-10-12T05:29:14.835Z,100520.27
2022-10-12T05:32:17.365Z,100522.84
2022-10-12T05:35:19.321Z,100526.38
2022-10-12T05:38:21.229Z,100526.80
2022-10-12T05:41:23.138Z,100527.39
2022-10-12T05:44:24.992Z,100528.42
2022-10-12T05:47:26.829Z,100527.45
2022-10-12T05:50:28.655Z,100527.61
2022-10-12T05:53:30.938Z,100527.34
2022-10-12T05:56:32.873Z,100530.15
2022-10-12T05:59:34.744Z,100528.14
2022-10-12T06:02:36.901Z,100528.48
2022-10-12T06:05:38.962Z,100529.32
2022-10-12T06:08:40.651Z,100530.55
2022-10-12T06:11:42.656Z,100532.60
2022-10-12T06:14:44.572Z,100533.14
2022-10-12T06:17:46.253Z,100540.05
2022-10-12T06:20:49.811Z,100536.21
2022-10-12T06:23:51.566Z,100531.38
2022-10-12T06:26:55.238Z,100536.41
2022-10-12T06:29:57.155Z,100536.63
2022-10-12T06:32:58.874Z,100538.98
2022-10-12T06:36:00.795Z,100541.75
2022-10-12T06:39:02.582Z,100544.52
2022-10-12T06:42:04.452Z,100547.33
2022-10-12T06:45:06.768Z,100545.51
2022-10-12T06:48:08.840Z,100545.71
2022-10-12T06:51:10.763Z,100547.64
2022-10-12T06:54:12.754Z,100545.35
2022-10-12T06:57:14.567Z,100549.09
2022-10-12T07:00:16.651Z,100544.27
2022-10-12T07:03:18.437Z,100545.98
2022-10-12T07:06:20.495Z,100541.69
2022-10-12T07:09:22.332Z,100543.91
2022-10-12T07:12:24.094Z,100543.64
2022-10-12T07:15:26.007Z,100542.85
2022-10-12T07:18:27.915Z,100545.14
2022-10-12T07:21:29.811Z,100544.44
2022-10-12T07:24:36.479Z,100546.44
2022-10-12T07:27:38.641Z,100549.89
2022-10-12T07:30:40.644Z,100548.63
2022-10-12T07:33:42.534Z,100543.36
2022-10-12T07:36:58.585Z,100541.98
2022-10-12T07:40:01.277Z,100536.38
2022-10-12T07:43:15.607Z,100534.54
2022-10-12T07:46:18.230Z,100534.99
2022-10-12T07:49:20.126Z,100528.76
2022-10-12T07:52:21.966Z,100530.16
2022-10-12T07:55:23.816Z,100528.34
2022-10-12T07:58:25.622Z,100523.65
2022-10-12T08:01:32.440Z,100525.48
2022-10-12T08:04:34.304Z,100525.00
2022-10-12T08:07:36.492Z,100524.87
2022-10-12T08:10:38.528Z,100520.52
2022-10-12T08:13:41.099Z,100518.46
2022-10-12T08:16:44.177Z,100515.56
2022-10-12T08:19:45.942Z,100508.90
2022-10-12T08:22:48.539Z,100515.77
2022-10-12T08:25:57.904Z,100516.41
2022-10-12T08:28:59.750Z,100519.50
2022-10-12T08:32:02.258Z,100521.58
2022-10-12T08:35:05.305Z,100513.94
2022-10-12T08:38:08.040Z,100513.85
2022-10-12T08:41:13.016Z,100505.86
2022-10-12T08:44:39.108Z,100506.02
2022-10-12T08:47:44.475Z,100502.65
2022-10-12T08:50:58.258Z,100504.66
2022-10-12T08:54:06.731Z,100495.73
2022-10-12T08:57:17.579Z,100496.70
2022-10-12T09:00:19.734Z,100500.68
2022-10-12T09:03:48.172Z,100502.39
2022-10-12T09:06:58.359Z,100503.65
2022-10-12T09:10:38.223Z,100497.11
2022-10-12T09:14:07.275Z,100501.73
2022-10-12T09:17:27.806Z,100499.28
2022-10-12T09:20:31.589Z,100498.14
2022-10-12T09:23:41.300Z,100496.27
2022-10-12T09:26:44.038Z,100496.88
2022-10-12T09:29:48.411Z,100498.14
2022-10-12T09:33:00.434Z,100492.63
2022-10-12T09:36:02.236Z,100491.05
2022-10-12T09:39:07.039Z,100490.41
2022-10-12T09:42:10.819Z,100494.78
2022-10-12T09:45:18.647Z,100493.82
2022-10-12T09:48:22.680Z,100493.81
2022-10-12T09:51:24.734Z,100494.63
2022-10-12T09:54:27.767Z,100491.36
2022-10-12T09:57:34.107Z,100487.71
2022-10-12T10:00:36.043Z,100487.73
2022-10-12T10:03:38.427Z,100483.98
2022-10-12T10:06:46.035Z,100485.86
2022-10-12T10:09:49.778Z,100481.48
2022-10-12T10:13:03.144Z,100478.11
2022-10-12T10:16:11.878Z,100476.48
2022-10-12T10:19:19.283Z,100471.92
2022-10-12T10:22:22.570Z,100469.92
2022-10-12T10:25:24.819Z,100469.41
2022-10-12T10:28:32.319Z,100465.20
2022-10-12T10:31:35.712Z,100463.77
2022-10-12T10:34:38.679Z,100460.73
2022-10-12T10:37:45.912Z,100461.48
2022-10-12T10:40:52.944Z,100460.02
2022-10-12T10:43:55.239Z,100456.69
2022-10-12T10:47:01.241Z,100453.02
2022-10-12T10:50:05.894Z,100447.95
2022-10-12T10:53:43.570Z,100447.67
2022-10-12T10:56:47.250Z,100447.66
2022-10-12T11:00:02.212Z,100448.02
2022-10-12T11:03:17.375Z,100450.27
2022-10-12T11:06:40.344Z,100446.92
2022-10-12T11:09:44.202Z,100446.16
2022-10-12T11:12:49.924Z,100444.26
2022-10-12T11:16:05.631Z,100447.57
2022-10-12T11:19:19.489Z,100446.60
2022-10-12T11:22:26.108Z,100444.54
2022-10-12T11:25:45.546Z,100444.53
2022-10-12T11:28:50.453Z,100441.34
2022-10-12T11:32:35.267Z,100441.75
2022-10-12T11:35:46.815Z,100439.58
2022-10-12T11:38:53.290Z,100431.61
2022-10-12T11:42:20.271Z,100431.39
2022-10-12T11:45:25.409Z,100431.96
2022-10-12T11:48:32.051Z,100434.59
2022-10-12T11:51:33.958Z,100434.34
2022-10-12T11:54:43.538Z,100431.27
2022-10-12T11:57:45.814Z,100427.98
2022-10-12T12:01:02.687Z,100431.16
2022-10-12T12:04:48.243Z,100428.27
2022-10-12T12:07:54.317Z,100426.50
2022-10-12T12:11:23.476Z,100431.20
2022-10-12T12:14:25.094Z,100431.57
2022-10-12T12:17:31.977Z,100436.49
2022-10-12T12:20:43.558Z,100425.33
2022-10-12T12:23:55.656Z,100422.95
2022-10-12T12:26:57.548Z,100421.61
2022-10-12T12:30:01.370Z,100418.66
2022-10-12T12:33:25.671Z,100417.50
2022-10-12T12:36:32.607Z,100418.25
2022-10-12T12:39:35.598Z,100418.45
2022-10-12T12:42:37.331Z,100414.89
2022-10-12T12:45:40.680Z,100416.45
2022-10-12T12:48:42.786Z,100410.12
2022-10-12T12:51:44.678Z,100405.61
2022-10-12T12:55:04.003Z,100401.10
2022-10-12T12:58:18.088Z,100399.30
2022-10-12T13:01:57.945Z,100401.80
2022-10-12T13:05:27.558Z,100398.17
2022-10-12T13:08:47.902Z,100400.73
2022-10-12T13:11:49.655Z,100394.71
2022-10-12T13:15:06.889Z,100390.81
2022-10-12T13:18:47.694Z,100387.51
2022-10-12T13:21:52.730Z,100387.76
2022-10-12T13:24:59.356Z,100387.17
2022-10-12T13:28:03.463Z,100387.20
2022-10-12T13:31:11.736Z,100389.95
2022-10-12T13:34:22.879Z,100391.92
2022-10-12T13:37:30.991Z,100384.80
2022-10-12T13:40:38.212Z,100383.29
2022-10-12T13:43:46.513Z,100382.72
2022-10-12T13:46:59.346Z,100380.30
2022-10-12T13:50:01.343Z,100382.66
2022-10-12T13:53:03.194Z,100379.59
2022-10-12T13:56:20.332Z,100378.52
2022-10-12T13:59:24.131Z,100378.93
2022-10-12T14:02:28.440Z,100380.99
2022-10-12T14:05:32.541Z,100381.36
2022-10-12T14:08:35.495Z,100378.49
2022-10-12T14:11:38.156Z,100374.58
2022-10-12T14:14:41.255Z,100370.38
2022-10-12T14:17:44.893Z,100365.88
2022-10-12T14:20:46.784Z,100364.88
2022-10-12T14:23:51.089Z,100363.84
2022-10-12T14:26:56.035Z,100365.95
2022-10-12T14:30:05.449Z,100367.92
2022-10-12T14:33:13.314Z,100367.88
2022-10-12T14:36:25.154Z,100364.93
2022-10-12T14:39:27.618Z,100363.69
2022-10-12T14:42:31.175Z,100355.45
2022-10-12T14:45:34.234Z,100354.54
2022-10-12T14:48:36.017Z,100358.79
2022-10-12T14:51:37.848Z,100352.31
2022-10-12T14:54:39.603Z,100351.97
2022-10-12T14:57:41.664Z,100351.27
2022-10-12T15:00:43.960Z,100352.35
2022-10-12T15:03:45.991Z,100355.11
2022-10-12T15:06:50.854Z,100354.33
2022-10-12T15:09:53.148Z,100358.98
2022-10-12T15:12:55.165Z,100355.85
2022-10-12T15:15:57.550Z,100353.39
2022-10-12T15:18:59.658Z,100358.58
2022-10-12T15:22:01.441Z,100354.36
2022-10-12T15:25:17.294Z,100358.95
2022-10-12T15:28:19.937Z,100355.17
2022-10-12T15:31:21.907Z,100358.64
2022-10-12T15:34:23.663Z,100359.63
2022-10-12T15:37:30.301Z,100359.34
2022-10-12T15:40:33.707Z,100360.50
2022-10-12T15:43:38.117Z,100365.50
2022-10-12T15:46:44.016Z,100364.40
2022-10-12T15:49:45.948Z,100356.46
2022-10-12T15:52:47.823Z,100357.02
2022-10-12T15:55:50.410Z,100356.80
2022-10-12T15:58:52.167Z,100362.03
2022-10-12T16:01:53.893Z,100365.06
2022-10-12T16:04:55.806Z,100371.25
2022-10-12T16:07:58.509Z,100367.95
2022-10-12T16:11:04.032Z,100370.20
2022-10-12T16:14:06.910Z,100372.67
2022-10-12T16:17:08.638Z,100368.73
2022-10-12T16:20:11.535Z,100365.25
2022-10-12T16:23:16.975Z,100370.77
2022-10-12T16:26:18.789Z,100373.52
2022-10-12T16:29:20.513Z,100373.66
2022-10-12T16:32:22.208Z,100375.11
2022-10-12T16:35:24.169Z,100375.99
2022-10-12T16:38:25.873Z,100369.77
2022-10-12T16:41:30.384Z,100373.70
2022-10-12T16:44:35.172Z,100373.84
2022-10-12T16:47:42.866Z,100376.21
2022-10-12T16:50:45.084Z,100377.73
2022-10-12T16:53:46.848Z,100375.23
2022-10-12T16:56:48.534Z,100375.95
2022-10-12T16:59:50.869Z,100382.36
2022-10-12T17:02:57.254Z,100379.77
2022-10-12T17:06:00.435Z,100386.91
2022-10-12T17:09:02.175Z,100389.99
2022-10-12T17:12:04.742Z,100391.91
2022-10-12T17:15:06.909Z,100395.80
2022-10-12T17:18:09.206Z,100392.78
2022-10-12T17:21:11.225Z,100392.61
2022-10-12T17:24:17.871Z,100389.13
2022-10-12T17:27:19.562Z,100393.39
2022-10-12T17:30:21.467Z,100394.72
2022-10-12T17:33:23.282Z,100396.27
2022-10-12T17:36:28.250Z,100390.67
2022-10-12T17:39:33.016Z,100390.55
2022-10-12T17:42:34.768Z,100393.13
2022-10-12T17:45:39.944Z,100392.81
2022-10-12T17:48:42.017Z,100394.23
2022-10-12T17:51:47.488Z,100392.03
2022-10-12T17:54:49.414Z,100390.00
2022-10-12T17:57:52.016Z,100389.63
2022-10-12T18:00:53.944Z,100388.76
2022-10-12T18:03:55.848Z,100388.67
2022-10-12T18:06:57.936Z,100390.09
2022-10-12T18:09:59.714Z,100390.19
2022-10-12T18:13:01.315Z,100391.67
2022-10-12T18:16:10.891Z,100387.30
2022-10-12T18:19:13.239Z,100391.76
2022-10-12T18:22:21.482Z,100392.50
2022-10-12T18:25:23.395Z,100391.94
2022-10-12T18:28:25.528Z,100390.13
2022-10-12T18:31:28.573Z,100391.14
2022-10-12T18:34:35.683Z,100390.28
2022-10-12T18:37:38.342Z,100388.02
2022-10-12T18:40:42.306Z,100388.13
2022-10-12T18:43:45.006Z,100389.02
2022-10-12T18:46:46.812Z,100384.08
2022-10-12T18:49:50.258Z,100388.48
2022-10-12T18:52:54.199Z,100386.08
2022-10-12T18:55:56.027Z,100386.77
2022-10-12T18:58:59.992Z,100381.71
2022-10-12T19:02:02.683Z,100378.96
2022-10-12T19:05:04.856Z,100379.76
2022-10-12T19:08:06.723Z,100377.98
2022-10-12T19:11:08.849Z,100379.55
2022-10-12T19:14:13.970Z,100381.39
2022-10-12T19:17:16.376Z,100382.50
2022-10-12T19:20:18.207Z,100386.41
2022-10-12T19:23:20.082Z,100385.55
2022-10-12T19:26:24.460Z,100383.27
2022-10-12T19:29:26.804Z,100386.52
2022-10-12T19:32:28.491Z,100387.09
2022-10-12T19:35:30.468Z,100391.17
2022-10-12T19:38:32.203Z,100393.99
2022-10-12T19:41:34.467Z,100392.59
2022-10-12T19:44:36.267Z,100399.03
2022-10-12T19:47:38.026Z,100402.20
2022-10-12T19:50:39.901Z,100402.13
2022-10-12T19:53:42.526Z,100406.50
2022-10-12T19:56:44.375Z,100400.59
2022-10-12T19:59:46.209Z,100401.00
2022-10-12T20:02:47.919Z,100400.92
2022-10-12T20:05:49.796Z,100403.02
2022-10-12T20:08:51.801Z,100403.73
2022-10-12T20:11:53.577Z,100401.93
2022-10-12T20:14:55.352Z,100401.36
2022-10-12T20:17:57.180Z,100400.94
2022-10-12T20:21:00.696Z,100406.46
2022-10-12T20:24:02.454Z,100405.16
2022-10-12T20:27:04.553Z,100406.91
2022-10-12T20:30:06.801Z,100408.42
2022-10-12T20:33:09.755Z,100405.98
2022-10-12T20:36:19.970Z,100407.05
2022-10-12T20:39:21.688Z,100407.25
2022-10-12T20:42:23.802Z,100407.57
2022-10-12T20:45:27.765Z,100402.20
2022-10-12T20:48:31.277Z,100399.46
2022-10-12T20:51:36.153Z,100400.88
2022-10-12T20:54:37.937Z,100401.66
2022-10-12T20:57:39.727Z,100404.27
2022-10-12T21:00:41.539Z,100404.77
2022-10-12T21:03:43.452Z,100400.61
2022-10-12T21:06:45.231Z,100394.98
2022-10-12T21:09:46.829Z,100395.22
2022-10-12T21:12:48.615Z,100395.58
2022-10-12T21:15:51.321Z,100397.48
2022-10-12T21:18:54.534Z,100399.85
2022-10-12T21:21:56.297Z,100398.09
2022-10-12T21:24:58.597Z,100399.69
2022-10-12T21:28:00.384Z,100397.30
2022-10-12T21:31:02.054Z,100395.45
2022-10-12T21:34:06.063Z,100395.58
2022-10-12T21:37:08.518Z,100395.33
2022-10-12T21:40:11.047Z,100394.54
2022-10-12T21:43:12.821Z,100395.39
2022-10-12T21:46:15.786Z,100395.47
2022-10-12T21:49:17.462Z,100394.68
2022-10-12T21:52:19.606Z,100398.45
2022-10-12T21:55:21.614Z,100393.17
2022-10-12T21:58:23.457Z,100390.89
2022-10-12T22:01:30.630Z,100385.99
2022-10-12T22:04:33.338Z,100381.95
2022-10-12T22:07:35.291Z,100383.30
2022-10-12T22:10:39.218Z,100381.20
2022-10-12T22:13:41.238Z,100382.45
2022-10-12T22:16:46.315Z,100383.37
2022-10-12T22:19:48.303Z,100385.88
2022-10-12T22:22:49.942Z,100389.96
2022-10-12T22:25:52.961Z,100392.98
2022-10-12T22:28:55.713Z,100396.84
2022-10-12T22:31:57.598Z,100397.45
2022-10-12T22:34:59.363Z,100395.77
2022-10-12T22:38:01.245Z,100394.40
2022-10-12T22:41:06.170Z,100392.91
2022-10-12T22:44:08.546Z,100392.95
2022-10-12T22:47:10.939Z,100392.11
2022-10-12T22:50:12.707Z,100397.03
2022-10-12T22:53:14.806Z,100402.05
2022-10-12T22:56:18.378Z,100404.26
2022-10-12T22:59:20.478Z,100396.81
2022-10-12T23:02:22.179Z,100394.88
2022-10-12T23:05:50.477Z,100392.48
2022-10-12T23:09:07.906Z,100394.94
2022-10-12T23:12:09.850Z,100393.56
2022-10-12T23:15:11.745Z,100394.05
2022-10-12T23:18:13.701Z,100390.61
2022-10-12T23:21:17.578Z,100393.08
2022-10-12T23:24:19.603Z,100395.08
2022-10-12T23:27:21.432Z,100393.48
2022-10-12T23:30:23.061Z,100390.73
2022-10-12T23:33:24.871Z,100392.52
2022-10-12T23:36:26.903Z,100389.54
2022-10-12T23:39:28.666Z,100390.07
2022-10-12T23:42:30.367Z,100389.26
2022-10-12T23:45:32.408Z,100393.30
2022-10-12T23:48:34.670Z,100393.07
2022-10-12T23:51:37.523Z,100390.63
2022-10-12T23:54:39.335Z,100393.33
2022-10-12T23:57:47.082Z,100393.40
